Lansdowne, MD

8:37 PM EST on December 21, 2014 (GMT -0500)
APRSWXNET Baltimore/Lansdowne MD US | Change Station
CLOSE
Current Station
Personal Weather Station
Location: Baltimore, MD
Elevation: 125 ft
Nearby Weather Stations

Elev 125 ft 39.24 °N, 76.65 °W | Updated 87 days ago

Partly Cloudy
Partly Cloudy
37 °F
Feels Like 37 °F
N
1
Wind Variable Wind from NE
Gusts 3 mph

Today
High -- | Low -- °F
--% Chance of Precip.
Yesterday
High -- | Low -- °F
Precip. -- in
7:22 AM 4:46 PM
Waning Crescent, 0% visible
Pressure 30.34 in
Visibility 8.0 miles
Clouds Scattered Clouds 25000 ft
Dew Point 27 °F
Humidity 66%
Rainfall -999.00 in
Snow Depth Not available.
UV 0 out of 12
Pollen .10 out of 12
Air Quality Not available.
Flu Activity Not available.
METAR KBWI 220054Z 07006KT 8SM SCT250 01/M04 A3033 RMK AO2 SLP272 T00061044

More Conditions Fewer Conditions

Pressure 30.34 in
Visibility 8.0 miles
Clouds Scattered Clouds 25000 ft
Dew Point 27 °F
Humidity 66%
Rainfall -999.00 in
Snow Depth Not available.
UV 0 out of 12
Pollen .10 out of 12
Air Quality Not available.
Flu Activity Not available.
METAR KBWI 220054Z 07006KT 8SM SCT250 01/M04 A3033 RMK AO2 SLP272 T00061044

More Conditions Fewer Conditions

10-Day Weather Forecast

Almanac

Astronomy

Dec. 21, 2014 Rise Set
Actual Time
Civil Twilight
Nautical Twilight
Astronomical Twilight
Moon
Length of Visible Light
Length of Day
Tomorrow will be .
, % of the Moon is Illuminated

Today's Extremes

State Highs State Lows

Community

WunderPhotos

Upload Photos

1,779,516 photos uploaded!

WunderBlogs® & News

Nearby

Air Quality

  Air Quality AQ Index Pollutant
Not available.

Snow Depth

Station Depth Elevation

Earthquake Activity

City Distance Mag. Time & Date
Minimum magnitude displayed is 2.5.

Coastal Water Temperatures

Place Temperature

Nearby Weather Stations